VLG75AZ LEBB-LFPO
Flight info
| Callsign | VLG75AZ |
|---|---|
| Flight time | 1h 6m |
| Altitude | 28000 |
| Route | SSN L176 LUSEM DCT LULUT DCT TUDRA DCT BEVOL UT158 AMB |
| Aircraft | A320/M-SDE3FGHIRWY/LB1 |
Departure
| Time | 2026-05-08 08:12 |
|---|---|
| Airport | Bilbao Airport (LEBB) |
Arrival
| Time | 2026-05-08 09:18 |
|---|---|
| Airport | Paris-Orly Airport (LFPO) |
| Time | Latitude | Longitude | Altitude | Speed | Heading |
|---|---|---|---|---|---|
| 2026-05-08 07:28 | 43.30444 | -2.90683 | 128 ft | 0 kts | 26° |
| 2026-05-08 08:00 | 43.30428 | -2.90694 | 123 ft | 4 kts | 22° |
| 2026-05-08 08:00 | 43.30403 | -2.90705 | 124 ft | 4 kts | 8° |
| 2026-05-08 08:00 | 43.30378 | -2.90704 | 126 ft | 4 kts | 329° |
| 2026-05-08 08:01 | 43.30367 | -2.90690 | 123 ft | 1 kts | 296° |
| 2026-05-08 08:01 | 43.30366 | -2.90687 | 123 ft | 0 kts | 296° |
| 2026-05-08 08:04 | 43.30367 | -2.90689 | 123 ft | 1 kts | 296° |
| 2026-05-08 08:05 | 43.30373 | -2.90707 | 126 ft | 3 kts | 296° |
| 2026-05-08 08:05 | 43.30387 | -2.90745 | 126 ft | 5 kts | 296° |
| 2026-05-08 08:05 | 43.30406 | -2.90800 | 126 ft | 7 kts | 290° |
| 2026-05-08 08:05 | 43.30407 | -2.90879 | 127 ft | 9 kts | 265° |
| 2026-05-08 08:06 | 43.30393 | -2.90975 | 124 ft | 11 kts | 234° |
| 2026-05-08 08:06 | 43.30316 | -2.91029 | 125 ft | 14 kts | 220° |
| 2026-05-08 08:06 | 43.30327 | -2.91150 | 125 ft | 14 kts | 298° |
| 2026-05-08 08:06 | 43.30378 | -2.91279 | 123 ft | 17 kts | 296° |
| 2026-05-08 08:07 | 43.30432 | -2.91431 | 127 ft | 19 kts | 296° |
| 2026-05-08 08:07 | 43.30493 | -2.91601 | 126 ft | 21 kts | 296° |
| 2026-05-08 08:07 | 43.30563 | -2.91787 | 124 ft | 23 kts | 297° |
| 2026-05-08 08:07 | 43.30639 | -2.91992 | 123 ft | 25 kts | 297° |
| 2026-05-08 08:08 | 43.30719 | -2.92211 | 126 ft | 27 kts | 296° |
| 2026-05-08 08:08 | 43.30790 | -2.92403 | 125 ft | 11 kts | 297° |
| 2026-05-08 08:08 | 43.30814 | -2.92466 | 127 ft | 0 kts | 298° |
| 2026-05-08 08:08 | 43.30814 | -2.92467 | 127 ft | 0 kts | 295° |
| 2026-05-08 08:09 | 43.30810 | -2.92472 | 127 ft | 1 kts | 241° |
| 2026-05-08 08:09 | 43.30797 | -2.92485 | 124 ft | 4 kts | 221° |
| 2026-05-08 08:09 | 43.30789 | -2.92495 | 126 ft | 0 kts | 221° |
| 2026-05-08 08:09 | 43.30775 | -2.92504 | 127 ft | 4 kts | 200° |
| 2026-05-08 08:10 | 43.30737 | -2.92498 | 128 ft | 7 kts | 158° |
| 2026-05-08 08:10 | 43.30682 | -2.92466 | 124 ft | 11 kts | 160° |
| 2026-05-08 08:10 | 43.30609 | -2.92418 | 124 ft | 13 kts | 136° |
| 2026-05-08 08:10 | 43.30582 | -2.92350 | 122 ft | 0 kts | 114° |
| 2026-05-08 08:11 | 43.30579 | -2.92341 | 124 ft | 6 kts | 114° |
| 2026-05-08 08:11 | 43.30446 | -2.91974 | 125 ft | 78 kts | 118° |
| 2026-05-08 08:11 | 43.30111 | -2.91063 | 127 ft | 133 kts | 117° |
| 2026-05-08 08:11 | 43.29629 | -2.89762 | 273 ft | 163 kts | 118° |
| 2026-05-08 08:12 | 43.29115 | -2.88406 | 937 ft | 160 kts | 117° |
| 2026-05-08 08:12 | 43.28599 | -2.87043 | 1542 ft | 164 kts | 118° |
| 2026-05-08 08:12 | 43.28052 | -2.85564 | 1894 ft | 181 kts | 120° |
| 2026-05-08 08:12 | 43.27468 | -2.84000 | 2483 ft | 183 kts | 121° |
| 2026-05-08 08:13 | 43.26899 | -2.82467 | 3175 ft | 179 kts | 122° |
| 2026-05-08 08:13 | 43.26341 | -2.80953 | 3797 ft | 181 kts | 122° |
| 2026-05-08 08:13 | 43.25778 | -2.79402 | 3999 ft | 185 kts | 121° |
| 2026-05-08 08:13 | 43.25253 | -2.77706 | 4467 ft | 196 kts | 113° |
| 2026-05-08 08:14 | 43.24923 | -2.75787 | 4754 ft | 224 kts | 100° |
| 2026-05-08 08:14 | 43.24960 | -2.73577 | 5373 ft | 237 kts | 79° |
| 2026-05-08 08:14 | 43.25727 | -2.71565 | 6110 ft | 247 kts | 46° |
| 2026-05-08 08:14 | 43.27162 | -2.70220 | 6860 ft | 253 kts | 32° |
| 2026-05-08 08:15 | 43.28533 | -2.68720 | 7617 ft | 255 kts | 51° |
| 2026-05-08 08:15 | 43.29527 | -2.66728 | 8510 ft | 249 kts | 64° |
| 2026-05-08 08:15 | 43.30209 | -2.64516 | 9245 ft | 256 kts | 75° |
| 2026-05-08 08:15 | 43.30543 | -2.62053 | 9691 ft | 271 kts | 90° |
| 2026-05-08 08:16 | 43.30577 | -2.59366 | 10046 ft | 292 kts | 92° |
| 2026-05-08 08:16 | 43.30589 | -2.56476 | 10263 ft | 315 kts | 91° |
| 2026-05-08 08:16 | 43.30606 | -2.53353 | 10515 ft | 336 kts | 91° |
| 2026-05-08 08:16 | 43.30636 | -2.50111 | 11078 ft | 343 kts | 90° |
| 2026-05-08 08:17 | 43.30678 | -2.46808 | 11748 ft | 347 kts | 90° |
| 2026-05-08 08:17 | 43.30728 | -2.43478 | 12414 ft | 351 kts | 91° |
| 2026-05-08 08:17 | 43.30782 | -2.40105 | 13098 ft | 355 kts | 91° |
| 2026-05-08 08:17 | 43.30837 | -2.36703 | 13807 ft | 357 kts | 91° |
| 2026-05-08 08:18 | 43.30891 | -2.33287 | 14407 ft | 360 kts | 91° |
| 2026-05-08 08:18 | 43.30944 | -2.29825 | 14999 ft | 364 kts | 91° |
| 2026-05-08 08:18 | 43.30991 | -2.26347 | 15567 ft | 367 kts | 92° |
| 2026-05-08 08:18 | 43.31022 | -2.22823 | 16134 ft | 370 kts | 92° |
| 2026-05-08 08:19 | 43.31037 | -2.19284 | 16712 ft | 373 kts | 91° |
| 2026-05-08 08:19 | 43.31044 | -2.15700 | 17283 ft | 376 kts | 93° |
| 2026-05-08 08:19 | 43.31048 | -2.12086 | 17858 ft | 379 kts | 92° |
| 2026-05-08 08:19 | 43.31054 | -2.08441 | 18401 ft | 383 kts | 93° |
| 2026-05-08 08:20 | 43.31062 | -2.04778 | 18914 ft | 386 kts | 92° |
| 2026-05-08 08:20 | 43.31071 | -2.01071 | 19417 ft | 389 kts | 92° |
| 2026-05-08 08:20 | 43.31080 | -1.97345 | 19946 ft | 393 kts | 92° |
| 2026-05-08 08:20 | 43.31089 | -1.93635 | 20438 ft | 396 kts | 91° |
| 2026-05-08 08:21 | 43.31338 | -1.89843 | 20885 ft | 403 kts | 79° |
| 2026-05-08 08:21 | 43.32193 | -1.86144 | 21311 ft | 410 kts | 67° |
| 2026-05-08 08:21 | 43.33637 | -1.82747 | 21713 ft | 418 kts | 54° |
| 2026-05-08 08:21 | 43.35638 | -1.79823 | 22154 ft | 422 kts | 40° |
| 2026-05-08 08:22 | 43.38071 | -1.77541 | 22567 ft | 427 kts | 31° |
| 2026-05-08 08:22 | 43.40611 | -1.75386 | 23067 ft | 429 kts | 33° |
| 2026-05-08 08:22 | 43.43115 | -1.73153 | 23561 ft | 430 kts | 33° |
| 2026-05-08 08:22 | 43.45613 | -1.70860 | 23983 ft | 432 kts | 34° |
| 2026-05-08 08:23 | 43.48115 | -1.68535 | 24395 ft | 434 kts | 34° |
| 2026-05-08 08:23 | 43.50624 | -1.66208 | 24766 ft | 437 kts | 34° |
| 2026-05-08 08:23 | 43.53165 | -1.63870 | 25133 ft | 440 kts | 33° |
| 2026-05-08 08:23 | 43.55720 | -1.61542 | 25494 ft | 442 kts | 33° |
| 2026-05-08 08:24 | 43.58306 | -1.59202 | 25852 ft | 445 kts | 33° |
| 2026-05-08 08:24 | 43.60911 | -1.56854 | 26189 ft | 448 kts | 33° |
| 2026-05-08 08:24 | 43.63523 | -1.54499 | 26543 ft | 450 kts | 33° |
| 2026-05-08 08:24 | 43.66153 | -1.52116 | 26890 ft | 453 kts | 32° |
| 2026-05-08 08:25 | 43.68781 | -1.49723 | 27289 ft | 454 kts | 32° |
| 2026-05-08 08:25 | 43.71429 | -1.47305 | 27647 ft | 457 kts | 32° |
| 2026-05-08 08:25 | 43.74097 | -1.44867 | 27895 ft | 462 kts | 32° |
| 2026-05-08 08:25 | 43.76812 | -1.42385 | 27943 ft | 472 kts | 32° |
| 2026-05-08 08:26 | 43.79570 | -1.39863 | 27938 ft | 481 kts | 32° |
| 2026-05-08 08:26 | 43.82395 | -1.37276 | 27951 ft | 491 kts | 32° |
| 2026-05-08 08:26 | 43.85250 | -1.34655 | 28218 ft | 492 kts | 32° |
| 2026-05-08 08:26 | 43.88080 | -1.32053 | 29031 ft | 484 kts | 32° |
| 2026-05-08 08:27 | 43.90847 | -1.29513 | 29637 ft | 481 kts | 32° |
| 2026-05-08 08:27 | 43.93668 | -1.26921 | 30136 ft | 479 kts | 32° |
| 2026-05-08 08:27 | 43.96406 | -1.24399 | 30538 ft | 479 kts | 32° |
| 2026-05-08 08:27 | 43.99185 | -1.21836 | 30938 ft | 479 kts | 32° |
| 2026-05-08 08:28 | 44.01951 | -1.19282 | 31337 ft | 478 kts | 32° |
| 2026-05-08 08:28 | 44.04723 | -1.16717 | 31767 ft | 477 kts | 32° |
| 2026-05-08 08:28 | 44.07477 | -1.14166 | 32183 ft | 476 kts | 31° |
| 2026-05-08 08:28 | 44.10248 | -1.11600 | 32620 ft | 475 kts | 31° |
| 2026-05-08 08:29 | 44.12993 | -1.09056 | 33022 ft | 475 kts | 31° |
| 2026-05-08 08:29 | 44.14853 | -1.07330 | 33298 ft | 475 kts | 31° |
| 2026-05-08 08:29 | 44.17562 | -1.04814 | 33700 ft | 475 kts | 31° |
| 2026-05-08 08:29 | 44.20314 | -1.02257 | 34080 ft | 475 kts | 31° |
| 2026-05-08 08:30 | 44.23065 | -0.99697 | 34441 ft | 474 kts | 31° |
| 2026-05-08 08:30 | 44.25810 | -0.97139 | 34812 ft | 473 kts | 31° |
| 2026-05-08 08:30 | 44.31271 | -0.92025 | 35508 ft | 472 kts | 31° |
| 2026-05-08 08:31 | 44.33991 | -0.89474 | 35833 ft | 472 kts | 31° |
| 2026-05-08 08:31 | 44.36738 | -0.86905 | 35945 ft | 477 kts | 31° |
| 2026-05-08 08:31 | 44.42408 | -0.82138 | 35970 ft | 471 kts | 24° |
| 2026-05-08 08:32 | 44.48186 | -0.77945 | 35953 ft | 467 kts | 24° |
| 2026-05-08 08:32 | 44.53900 | -0.73771 | 35959 ft | 465 kts | 24° |
| 2026-05-08 08:33 | 44.59636 | -0.69574 | 35953 ft | 465 kts | 24° |
| 2026-05-08 08:33 | 44.65371 | -0.65389 | 35966 ft | 465 kts | 24° |
| 2026-05-08 08:34 | 44.71104 | -0.61194 | 35968 ft | 465 kts | 24° |
| 2026-05-08 08:34 | 44.76842 | -0.56973 | 35967 ft | 464 kts | 24° |
| 2026-05-08 08:35 | 44.82567 | -0.52751 | 35968 ft | 464 kts | 24° |
| 2026-05-08 08:35 | 44.88286 | -0.48522 | 35967 ft | 464 kts | 24° |
| 2026-05-08 08:36 | 44.94020 | -0.44282 | 35964 ft | 464 kts | 24° |
| 2026-05-08 08:36 | 44.99740 | -0.40044 | 35983 ft | 464 kts | 24° |
| 2026-05-08 08:37 | 45.05454 | -0.35795 | 35984 ft | 464 kts | 24° |
| 2026-05-08 08:37 | 45.11161 | -0.31543 | 35980 ft | 463 kts | 24° |
| 2026-05-08 08:38 | 45.16860 | -0.27279 | 35977 ft | 463 kts | 24° |
| 2026-05-08 08:38 | 45.22523 | -0.23043 | 35992 ft | 463 kts | 24° |
| 2026-05-08 08:39 | 45.28217 | -0.18771 | 35985 ft | 462 kts | 24° |
| 2026-05-08 08:39 | 45.33900 | -0.14503 | 35982 ft | 462 kts | 24° |
| 2026-05-08 08:40 | 45.39579 | -0.10228 | 35990 ft | 462 kts | 24° |
| 2026-05-08 08:40 | 45.45251 | -0.05937 | 35986 ft | 462 kts | 24° |
| 2026-05-08 08:41 | 45.50930 | -0.01631 | 35984 ft | 461 kts | 24° |
| 2026-05-08 08:41 | 45.56593 | 0.02666 | 35976 ft | 461 kts | 23° |
| 2026-05-08 08:42 | 45.62261 | 0.06973 | 35984 ft | 460 kts | 23° |
| 2026-05-08 08:42 | 45.67906 | 0.11277 | 35978 ft | 460 kts | 23° |
| 2026-05-08 08:43 | 45.73544 | 0.15581 | 36017 ft | 459 kts | 23° |
| 2026-05-08 08:43 | 45.79190 | 0.19895 | 36026 ft | 459 kts | 23° |
| 2026-05-08 08:44 | 45.84818 | 0.24218 | 36019 ft | 459 kts | 23° |
| 2026-05-08 08:44 | 45.90441 | 0.28547 | 36007 ft | 459 kts | 23° |
| 2026-05-08 08:45 | 45.96060 | 0.32884 | 36000 ft | 458 kts | 23° |
| 2026-05-08 08:45 | 46.01641 | 0.37205 | 36002 ft | 458 kts | 23° |
| 2026-05-08 08:46 | 46.07253 | 0.41543 | 36003 ft | 458 kts | 23° |
| 2026-05-08 08:46 | 46.12865 | 0.45898 | 35998 ft | 457 kts | 23° |
| 2026-05-08 08:47 | 46.18453 | 0.50251 | 36017 ft | 456 kts | 23° |
| 2026-05-08 08:47 | 46.24032 | 0.54604 | 36008 ft | 456 kts | 23° |
| 2026-05-08 08:48 | 46.29602 | 0.58962 | 36004 ft | 455 kts | 23° |
| 2026-05-08 08:48 | 46.35175 | 0.63340 | 36004 ft | 455 kts | 23° |
| 2026-05-08 08:49 | 46.40706 | 0.67682 | 36012 ft | 454 kts | 23° |
| 2026-05-08 08:49 | 46.46264 | 0.72053 | 36006 ft | 454 kts | 23° |
| 2026-05-08 08:50 | 46.51821 | 0.76420 | 36001 ft | 453 kts | 21° |
| 2026-05-08 08:50 | 46.57704 | 0.79291 | 36018 ft | 442 kts | 7° |
| 2026-05-08 08:51 | 46.63727 | 0.81169 | 36020 ft | 442 kts | 7° |
| 2026-05-08 08:51 | 46.69733 | 0.83057 | 35996 ft | 443 kts | 7° |
| 2026-05-08 08:52 | 46.72794 | 0.84020 | 35745 ft | 454 kts | 7° |
| 2026-05-08 08:52 | 46.75859 | 0.84988 | 35500 ft | 458 kts | 7° |
| 2026-05-08 08:52 | 46.78976 | 0.85980 | 35137 ft | 457 kts | 7° |
| 2026-05-08 08:52 | 46.82062 | 0.86969 | 34624 ft | 453 kts | 7° |
| 2026-05-08 08:53 | 46.85127 | 0.87955 | 34176 ft | 447 kts | 7° |
| 2026-05-08 08:53 | 46.88151 | 0.88926 | 33717 ft | 441 kts | 7° |
| 2026-05-08 08:53 | 46.91129 | 0.89880 | 33191 ft | 437 kts | 7° |
| 2026-05-08 08:53 | 46.94088 | 0.90825 | 32654 ft | 433 kts | 7° |
| 2026-05-08 08:54 | 46.97011 | 0.91753 | 32125 ft | 429 kts | 7° |
| 2026-05-08 08:54 | 46.99921 | 0.92681 | 31594 ft | 426 kts | 7° |
| 2026-05-08 08:54 | 47.02808 | 0.93605 | 31053 ft | 422 kts | 7° |
| 2026-05-08 08:54 | 47.05660 | 0.94516 | 30543 ft | 419 kts | 7° |
| 2026-05-08 08:55 | 47.08500 | 0.95421 | 30005 ft | 416 kts | 7° |
| 2026-05-08 08:55 | 47.11311 | 0.96314 | 29398 ft | 413 kts | 7° |
| 2026-05-08 08:55 | 47.14112 | 0.97202 | 28791 ft | 410 kts | 8° |
| 2026-05-08 08:55 | 47.16886 | 0.98087 | 28190 ft | 408 kts | 8° |
| 2026-05-08 08:56 | 47.19655 | 0.98975 | 27613 ft | 406 kts | 8° |
| 2026-05-08 08:56 | 47.22399 | 0.99856 | 27025 ft | 404 kts | 8° |
| 2026-05-08 08:56 | 47.25142 | 1.00736 | 26454 ft | 402 kts | 8° |
| 2026-05-08 08:56 | 47.27863 | 1.01610 | 25905 ft | 400 kts | 8° |
| 2026-05-08 08:57 | 47.30595 | 1.02489 | 25375 ft | 399 kts | 8° |
| 2026-05-08 08:57 | 47.33296 | 1.03355 | 24858 ft | 397 kts | 8° |
| 2026-05-08 08:57 | 47.36000 | 1.04221 | 24359 ft | 396 kts | 8° |
| 2026-05-08 08:57 | 47.38696 | 1.05087 | 23889 ft | 395 kts | 9° |
| 2026-05-08 08:58 | 47.41379 | 1.05954 | 23330 ft | 396 kts | 9° |
| 2026-05-08 08:58 | 47.44041 | 1.07024 | 22777 ft | 396 kts | 16° |
| 2026-05-08 08:58 | 47.46642 | 1.08367 | 22257 ft | 394 kts | 17° |
| 2026-05-08 08:58 | 47.49218 | 1.09694 | 21756 ft | 392 kts | 17° |
| 2026-05-08 08:59 | 47.51789 | 1.11013 | 21263 ft | 389 kts | 17° |
| 2026-05-08 08:59 | 47.54335 | 1.12305 | 20771 ft | 386 kts | 16° |
| 2026-05-08 08:59 | 47.56876 | 1.13586 | 20288 ft | 384 kts | 17° |
| 2026-05-08 08:59 | 47.59361 | 1.14841 | 19817 ft | 382 kts | 17° |
| 2026-05-08 09:00 | 47.61874 | 1.16112 | 19298 ft | 380 kts | 17° |
| 2026-05-08 09:00 | 47.64364 | 1.17376 | 18821 ft | 378 kts | 17° |
| 2026-05-08 09:00 | 47.66859 | 1.18647 | 18357 ft | 376 kts | 17° |
| 2026-05-08 09:00 | 47.69328 | 1.19911 | 17845 ft | 374 kts | 17° |
| 2026-05-08 09:01 | 47.71772 | 1.21159 | 17358 ft | 371 kts | 17° |
| 2026-05-08 09:01 | 47.74197 | 1.22395 | 16873 ft | 368 kts | 17° |
| 2026-05-08 09:01 | 47.76612 | 1.23629 | 16376 ft | 365 kts | 17° |
| 2026-05-08 09:01 | 47.79010 | 1.24853 | 15906 ft | 362 kts | 17° |
| 2026-05-08 09:02 | 47.81396 | 1.26072 | 15446 ft | 360 kts | 17° |
| 2026-05-08 09:02 | 47.83745 | 1.27276 | 15004 ft | 357 kts | 18° |
| 2026-05-08 09:02 | 47.86086 | 1.28481 | 14584 ft | 354 kts | 18° |
| 2026-05-08 09:02 | 47.88406 | 1.29676 | 14156 ft | 351 kts | 18° |
| 2026-05-08 09:03 | 47.90709 | 1.30861 | 13723 ft | 348 kts | 18° |
| 2026-05-08 09:03 | 47.92987 | 1.32032 | 13260 ft | 346 kts | 18° |
| 2026-05-08 09:03 | 47.95257 | 1.33202 | 12803 ft | 343 kts | 18° |
| 2026-05-08 09:03 | 47.97472 | 1.34348 | 12370 ft | 340 kts | 18° |
| 2026-05-08 09:04 | 47.99707 | 1.35500 | 11939 ft | 338 kts | 17° |
| 2026-05-08 09:04 | 48.01952 | 1.36654 | 11523 ft | 335 kts | 18° |
| 2026-05-08 09:04 | 48.04118 | 1.37770 | 11112 ft | 333 kts | 18° |
| 2026-05-08 09:04 | 48.06271 | 1.39139 | 10691 ft | 331 kts | 28° |
| 2026-05-08 09:05 | 48.08167 | 1.40965 | 10450 ft | 324 kts | 33° |
| 2026-05-08 09:05 | 48.10023 | 1.42852 | 10336 ft | 313 kts | 33° |
| 2026-05-08 09:05 | 48.11776 | 1.44626 | 10211 ft | 304 kts | 33° |
| 2026-05-08 09:05 | 48.13511 | 1.46377 | 10082 ft | 298 kts | 33° |
| 2026-05-08 09:06 | 48.15219 | 1.48096 | 10038 ft | 297 kts | 33° |
| 2026-05-08 09:06 | 48.16934 | 1.49826 | 10042 ft | 296 kts | 33° |
| 2026-05-08 09:06 | 48.18648 | 1.51558 | 10048 ft | 297 kts | 33° |
| 2026-05-08 09:06 | 48.20360 | 1.53287 | 10044 ft | 297 kts | 33° |
| 2026-05-08 09:07 | 48.22073 | 1.55023 | 10054 ft | 296 kts | 32° |
| 2026-05-08 09:07 | 48.23783 | 1.56760 | 10047 ft | 297 kts | 33° |
| 2026-05-08 09:07 | 48.25494 | 1.58502 | 10055 ft | 297 kts | 33° |
| 2026-05-08 09:07 | 48.27203 | 1.60240 | 10054 ft | 296 kts | 33° |
| 2026-05-08 09:08 | 48.28909 | 1.61972 | 10052 ft | 297 kts | 33° |
| 2026-05-08 09:08 | 48.30621 | 1.63714 | 10046 ft | 296 kts | 33° |
| 2026-05-08 09:08 | 48.32322 | 1.65451 | 10049 ft | 297 kts | 33° |
| 2026-05-08 09:08 | 48.34035 | 1.67200 | 10052 ft | 297 kts | 33° |
| 2026-05-08 09:09 | 48.35735 | 1.68939 | 10049 ft | 296 kts | 33° |
| 2026-05-08 09:09 | 48.37443 | 1.70683 | 10046 ft | 297 kts | 33° |
| 2026-05-08 09:09 | 48.39135 | 1.72409 | 10057 ft | 296 kts | 32° |
| 2026-05-08 09:09 | 48.40837 | 1.74146 | 10060 ft | 295 kts | 33° |
| 2026-05-08 09:10 | 48.42531 | 1.75878 | 10027 ft | 295 kts | 32° |
| 2026-05-08 09:10 | 48.44237 | 1.77624 | 9630 ft | 296 kts | 32° |
| 2026-05-08 09:10 | 48.45934 | 1.79362 | 9271 ft | 295 kts | 32° |
| 2026-05-08 09:10 | 48.47629 | 1.81102 | 8936 ft | 294 kts | 33° |
| 2026-05-08 09:11 | 48.49311 | 1.82830 | 8614 ft | 291 kts | 33° |
| 2026-05-08 09:11 | 48.50974 | 1.84539 | 8291 ft | 289 kts | 33° |
| 2026-05-08 09:11 | 48.52633 | 1.86248 | 7954 ft | 288 kts | 33° |
| 2026-05-08 09:11 | 48.54318 | 1.87982 | 7192 ft | 298 kts | 34° |
| 2026-05-08 09:12 | 48.56036 | 1.89754 | 6409 ft | 299 kts | 35° |
| 2026-05-08 09:12 | 48.57626 | 1.91759 | 5593 ft | 298 kts | 51° |
| 2026-05-08 09:12 | 48.58667 | 1.94369 | 5254 ft | 284 kts | 62° |
| 2026-05-08 09:12 | 48.59587 | 1.96953 | 5123 ft | 274 kts | 62° |
| 2026-05-08 09:13 | 48.60187 | 1.98614 | 5038 ft | 268 kts | 62° |
| 2026-05-08 09:13 | 48.61057 | 2.01018 | 4918 ft | 253 kts | 62° |
| 2026-05-08 09:13 | 48.62121 | 2.03964 | 4739 ft | 229 kts | 62° |
| 2026-05-08 09:13 | 48.62623 | 2.05358 | 4586 ft | 221 kts | 62° |
| 2026-05-08 09:14 | 48.63583 | 2.08032 | 4085 ft | 215 kts | 62° |
| 2026-05-08 09:14 | 48.64283 | 2.09988 | 4004 ft | 208 kts | 62° |
| 2026-05-08 09:14 | 48.64950 | 2.11852 | 3999 ft | 197 kts | 62° |
| 2026-05-08 09:14 | 48.65391 | 2.13087 | 3886 ft | 200 kts | 62° |
| 2026-05-08 09:15 | 48.66088 | 2.15036 | 3164 ft | 216 kts | 63° |
| 2026-05-08 09:15 | 48.66780 | 2.16982 | 2852 ft | 202 kts | 63° |
| 2026-05-08 09:15 | 48.67409 | 2.18806 | 2357 ft | 194 kts | 64° |
| 2026-05-08 09:15 | 48.68043 | 2.20583 | 2000 ft | 188 kts | 61° |
| 2026-05-08 09:16 | 48.68661 | 2.22256 | 1651 ft | 178 kts | 62° |
| 2026-05-08 09:16 | 48.69220 | 2.23783 | 1528 ft | 155 kts | 63° |
| 2026-05-08 09:16 | 48.69701 | 2.25156 | 1432 ft | 141 kts | 63° |
| 2026-05-08 09:16 | 48.70149 | 2.26440 | 1095 ft | 136 kts | 62° |
| 2026-05-08 09:17 | 48.70589 | 2.27681 | 933 ft | 132 kts | 62° |
| 2026-05-08 09:17 | 48.71020 | 2.28908 | 703 ft | 132 kts | 62° |
| 2026-05-08 09:17 | 48.71467 | 2.30152 | 551 ft | 133 kts | 63° |
| 2026-05-08 09:17 | 48.71892 | 2.31366 | 411 ft | 134 kts | 63° |
| 2026-05-08 09:18 | 48.72324 | 2.32595 | 306 ft | 127 kts | 62° |
| 2026-05-08 09:18 | 48.72667 | 2.33585 | 300 ft | 83 kts | 62° |
| 2026-05-08 09:18 | 48.72866 | 2.34141 | 301 ft | 39 kts | 62° |
| 2026-05-08 09:18 | 48.72919 | 2.34289 | 300 ft | 5 kts | 62° |